createdAt,value
2022-09-06T00:00:37.094Z,44.70
2022-09-06T00:05:37.342Z,45.54
2022-09-06T00:10:37.734Z,45.49
2022-09-06T00:15:39.225Z,45.85
2022-09-06T00:20:41.588Z,46.03
2022-09-06T00:25:41.601Z,46.62
2022-09-06T00:30:42.324Z,46.98
2022-09-06T00:35:41.354Z,47.15
2022-09-06T00:40:40.851Z,47.47
2022-09-06T00:45:41.855Z,47.56
2022-09-06T00:50:40.905Z,48.07
2022-09-06T00:55:44.234Z,47.58
2022-09-06T01:00:45.058Z,48.39
2022-09-06T01:06:07.330Z,47.18
2022-09-06T01:11:12.222Z,46.96
2022-09-06T01:16:20.034Z,48.30
2022-09-06T01:21:30.598Z,47.97
2022-09-06T01:27:08.250Z,47.23
2022-09-06T01:32:16.581Z,48.16
2022-09-06T01:37:20.384Z,47.71
2022-09-06T01:42:26.249Z,47.76
2022-09-06T01:47:38.375Z,48.13
2022-09-06T01:52:41.279Z,47.31
2022-09-06T01:57:55.212Z,47.58
2022-09-06T02:03:14.658Z,48.60
2022-09-06T02:08:19.500Z,49.42
2022-09-06T02:13:21.538Z,48.84
2022-09-06T02:18:25.834Z,49.70
2022-09-06T02:23:28.468Z,49.57
2022-09-06T02:28:29.274Z,50.50
2022-09-06T02:33:33.953Z,50.70
2022-09-06T02:38:35.616Z,50.53
2022-09-06T02:43:34.988Z,50.91
2022-09-06T02:48:35.482Z,51.88
2022-09-06T02:53:37.371Z,50.84
2022-09-06T02:58:36.895Z,49.92
2022-09-06T03:03:37.338Z,50.88
2022-09-06T03:08:36.840Z,51.94
2022-09-06T03:13:35.982Z,53.29
2022-09-06T03:18:36.522Z,53.91
2022-09-06T03:23:37.628Z,54.23
2022-09-06T03:28:43.130Z,54.74
2022-09-06T03:33:43.901Z,54.44
2022-09-06T03:38:43.007Z,55.13
2022-09-06T03:43:43.019Z,55.76
2022-09-06T03:48:43.514Z,56.02
2022-09-06T03:53:42.718Z,56.55
2022-09-06T03:58:41.838Z,56.32
2022-09-06T04:03:42.094Z,56.49
2022-09-06T04:08:42.724Z,56.28
2022-09-06T04:13:41.773Z,56.58
2022-09-06T04:18:40.883Z,56.25
2022-09-06T04:23:40.249Z,56.47
2022-09-06T04:28:41.006Z,55.69
2022-09-06T04:33:40.374Z,56.91
2022-09-06T04:38:41.163Z,55.95
2022-09-06T04:43:41.929Z,56.61
2022-09-06T04:48:40.957Z,57.21
2022-09-06T04:53:39.942Z,56.18
2022-09-06T04:58:38.907Z,56.19
2022-09-06T05:03:39.461Z,55.53
2022-09-06T05:08:55.773Z,54.84
2022-09-06T05:14:00.670Z,55.53
2022-09-06T05:19:15.149Z,55.52
2022-09-06T05:24:15.012Z,55.23
2022-09-06T05:29:14.183Z,54.02
2022-09-06T05:34:15.365Z,53.31
2022-09-06T05:39:14.437Z,53.38
2022-09-06T05:44:13.568Z,52.65
2022-09-06T05:49:14.747Z,53.45
2022-09-06T05:54:13.807Z,53.34
2022-09-06T05:59:12.782Z,53.36
2022-09-06T06:04:11.944Z,53.68
2022-09-06T06:09:12.494Z,53.80
2022-09-06T06:14:14.273Z,53.75
2022-09-06T06:19:13.319Z,53.33
2022-09-06T06:24:13.794Z,53.13
2022-09-06T06:29:12.771Z,52.94
2022-09-06T06:34:11.956Z,52.12
2022-09-06T06:39:11.102Z,52.37
2022-09-06T06:44:11.645Z,52.15
2022-09-06T06:49:11.072Z,52.91
2022-09-06T06:54:10.251Z,53.06
2022-09-06T06:59:10.015Z,52.58
2022-09-06T07:04:12.290Z,53.74
2022-09-06T07:09:11.279Z,53.40
2022-09-06T07:14:10.495Z,53.55
2022-09-06T07:24:30.344Z,52.55
2022-09-06T07:29:31.269Z,51.89
2022-09-06T07:34:33.187Z,50.79
2022-09-06T07:39:33.242Z,49.36
2022-09-06T07:44:32.378Z,57.22
2022-09-06T07:49:34.775Z,57.22
2022-09-06T07:54:33.940Z,55.09
2022-09-06T07:59:33.030Z,50.19
2022-09-06T08:04:33.473Z,52.29
2022-09-06T08:09:33.120Z,48.42
2022-09-06T08:14:32.831Z,48.13
2022-09-06T08:19:34.568Z,40.33
2022-09-06T08:24:35.937Z,37.32
2022-09-06T08:29:35.040Z,34.88
2022-09-06T08:34:36.447Z,36.11
2022-09-06T08:39:35.252Z,34.96
2022-09-06T08:50:04.203Z,33.48
2022-09-06T08:55:26.474Z,32.42
2022-09-06T09:00:25.938Z,31.54
2022-09-06T09:05:29.750Z,30.57
2022-09-06T09:10:30.970Z,28.71
2022-09-06T09:15:30.126Z,28.36
2022-09-06T09:20:30.818Z,26.65
2022-09-06T09:25:36.297Z,24.51
2022-09-06T09:38:14.314Z,23.66
2022-09-06T09:44:04.619Z,22.55
2022-09-06T09:55:34.502Z,22.01
2022-09-06T10:00:40.093Z,20.76
2022-09-06T10:05:39.357Z,20.79
2022-09-06T10:10:43.078Z,20.19
2022-09-06T10:15:42.611Z,20.46
2022-09-06T10:20:49.386Z,18.79
2022-09-06T10:25:56.698Z,19.76
2022-09-06T10:31:27.339Z,19.09
2022-09-06T10:36:35.891Z,18.64
2022-09-06T10:41:58.367Z,18.69
2022-09-06T10:47:06.227Z,17.71
2022-09-06T10:52:08.271Z,18.30
2022-09-06T11:13:48.525Z,16.16
2022-09-06T11:18:51.963Z,16.65
2022-09-06T11:23:54.130Z,16.76
2022-09-06T11:28:58.316Z,15.37
2022-09-06T11:34:11.597Z,16.07
2022-09-06T11:39:11.274Z,15.22
2022-09-06T11:44:15.459Z,16.19
2022-09-06T11:49:32.289Z,15.82
2022-09-06T11:54:43.130Z,14.88
2022-09-06T11:59:58.440Z,16.94
2022-09-06T12:05:22.696Z,15.85
2022-09-06T12:10:49.812Z,16.40
2022-09-06T12:15:55.676Z,16.69
2022-09-06T12:21:04.007Z,16.67
2022-09-06T12:26:04.507Z,16.29
2022-09-06T12:32:01.484Z,17.18
2022-09-06T12:37:07.195Z,16.33
2022-09-06T12:42:08.866Z,16.72
2022-09-06T12:47:16.795Z,16.29
2022-09-06T12:52:22.505Z,16.42
2022-09-06T12:57:26.066Z,16.34
2022-09-06T13:02:41.420Z,15.43
2022-09-06T13:07:45.330Z,15.57
2022-09-06T13:12:50.460Z,15.48
2022-09-06T13:17:53.587Z,15.16
2022-09-06T13:22:56.082Z,15.04
2022-09-06T13:28:01.725Z,14.97
2022-09-06T13:33:03.828Z,15.00
2022-09-06T13:38:26.660Z,14.23
2022-09-06T13:43:27.145Z,16.01
2022-09-06T13:48:37.156Z,14.98
2022-09-06T13:53:36.809Z,15.11
2022-09-06T13:58:44.549Z,15.08
2022-09-06T14:03:45.157Z,15.26
2022-09-06T14:09:07.339Z,14.69
2022-09-06T14:14:07.415Z,14.52
2022-09-06T14:19:08.272Z,14.47
2022-09-06T14:24:08.763Z,14.79
2022-09-06T14:29:08.703Z,14.35
2022-09-06T14:34:11.397Z,14.39
2022-09-06T14:39:24.951Z,14.80
2022-09-06T14:44:27.536Z,15.01
2022-09-06T14:49:28.536Z,15.01
2022-09-06T14:54:40.647Z,14.99
2022-09-06T14:59:42.122Z,14.89
2022-09-06T15:04:46.106Z,15.74
2022-09-06T15:09:46.390Z,16.12
2022-09-06T15:14:45.707Z,16.33
2022-09-06T15:19:57.266Z,16.16
2022-09-06T15:25:41.480Z,16.10
2022-09-06T15:31:05.865Z,15.82
2022-09-06T15:37:14.071Z,16.29
2022-09-06T15:42:28.950Z,16.48
2022-09-06T15:48:21.380Z,16.57
2022-09-06T15:53:43.681Z,15.97
2022-09-06T16:11:00.283Z,18.27
2022-09-06T16:16:45.865Z,19.31
2022-09-06T16:29:11.966Z,21.16
2022-09-06T16:34:15.910Z,21.91
2022-09-06T16:39:15.435Z,22.56
2022-09-06T16:44:17.624Z,23.58
2022-09-06T16:49:26.701Z,24.54
2022-09-06T16:54:25.831Z,25.09
2022-09-06T16:59:28.424Z,26.29
2022-09-06T17:04:29.268Z,26.34
2022-09-06T17:09:28.552Z,26.79
2022-09-06T17:14:29.342Z,28.49
2022-09-06T17:19:31.429Z,28.65
2022-09-06T17:24:30.532Z,29.38
2022-09-06T17:29:33.396Z,29.46
2022-09-06T17:34:34.284Z,29.61
2022-09-06T17:39:36.227Z,30.21
2022-09-06T17:44:38.153Z,30.51
2022-09-06T17:49:42.098Z,31.71
2022-09-06T17:54:41.106Z,31.70
2022-09-06T17:59:40.119Z,31.97
2022-09-06T18:04:42.313Z,32.43
2022-09-06T18:09:41.915Z,32.52
2022-09-06T18:14:41.645Z,33.16
2022-09-06T18:19:42.517Z,32.87
2022-09-06T18:24:42.163Z,33.34
2022-09-06T18:29:46.706Z,33.19
2022-09-06T18:34:47.754Z,33.62
2022-09-06T18:39:46.993Z,33.34
2022-09-06T18:44:48.743Z,33.68
2022-09-06T18:49:49.463Z,33.89
2022-09-06T18:54:49.637Z,33.66
2022-09-06T18:59:50.753Z,34.16
2022-09-06T19:04:54.618Z,34.04
2022-09-06T19:09:54.511Z,34.65
2022-09-06T19:14:53.622Z,34.62
2022-09-06T19:19:54.517Z,34.85
2022-09-06T19:24:53.931Z,34.89
2022-09-06T19:29:53.562Z,34.59
2022-09-06T19:34:54.919Z,34.73
2022-09-06T19:39:57.758Z,35.00
2022-09-06T19:44:57.263Z,36.01
2022-09-06T19:50:00.550Z,37.02
2022-09-06T19:55:00.384Z,38.25
2022-09-06T19:59:59.794Z,38.43
2022-09-06T20:05:00.698Z,38.18
2022-09-06T20:10:02.895Z,37.82
2022-09-06T20:15:02.253Z,38.12
2022-09-06T20:20:03.151Z,38.34
2022-09-06T20:25:02.368Z,39.11
2022-09-06T20:30:10.444Z,39.26
2022-09-06T20:35:11.678Z,39.41
2022-09-06T20:40:13.332Z,39.60
2022-09-06T20:45:13.046Z,39.61
2022-09-06T20:50:14.186Z,39.44
2022-09-06T20:55:13.548Z,39.70
2022-09-06T21:00:14.663Z,39.86
2022-09-06T21:05:16.503Z,40.29
2022-09-06T21:10:15.648Z,40.55
2022-09-06T21:15:15.884Z,40.57
2022-09-06T21:20:16.756Z,40.61
2022-09-06T21:25:18.644Z,40.61
2022-09-06T21:30:21.137Z,41.76
2022-09-06T21:35:24.669Z,41.78
2022-09-06T21:40:25.684Z,41.36
2022-09-06T21:45:24.822Z,42.01
2022-09-06T21:50:25.502Z,41.90
2022-09-06T21:55:25.037Z,42.31
2022-09-06T22:00:24.274Z,42.15
2022-09-06T22:05:24.826Z,42.49
2022-09-06T22:10:24.984Z,42.70
2022-09-06T22:15:24.418Z,43.14
2022-09-06T22:20:25.252Z,43.43
2022-09-06T22:25:24.462Z,43.08
2022-09-06T22:30:25.718Z,43.36
2022-09-06T22:35:26.460Z,43.35
2022-09-06T22:40:25.707Z,43.69
2022-09-06T22:45:24.992Z,43.71
2022-09-06T22:50:25.553Z,43.78
2022-09-06T22:55:24.858Z,43.16
2022-09-06T23:00:24.072Z,43.71
2022-09-06T23:05:25.264Z,44.10
2022-09-06T23:10:24.452Z,44.94
2022-09-06T23:15:23.825Z,44.97
2022-09-06T23:20:22.786Z,45.40
2022-09-06T23:25:23.228Z,46.13
2022-09-06T23:30:22.347Z,46.06
2022-09-06T23:35:21.492Z,46.01
2022-09-06T23:40:21.064Z,46.46
2022-09-06T23:45:22.068Z,46.17
2022-09-06T23:50:21.186Z,46.45
2022-09-06T23:55:20.226Z,46.50
